Latest Weather Observations for Richmond

IDN60901

Issued at 6:11 am EDT Saturday 18 November 2017 (issued every 10 minutes, with the page automatically refreshed every 10 minutes)

About weather observations | Map of Sydney area stations | Latest observations for Sydney area | Other Formats
Station Details ID: 067105 Name: RICHMOND RAAF Lat: -33.60 Lon: 150.78 Height: 19.0 m
Data from the previous 72 hours. | See also: Recent months at Richmond
Date/Time
EDT
Temp
°C
App
Temp
°C
Dew
Point
°C
Rel
Hum
%
Delta-T
°C
Wind Press
QNH
hPa
Press
MSL
hPa
Rain since
9am
mm
Dir  Spd
km/h
Gust
km/h
Spd
kts
Gust
kts
18/06:00am 18.6 20.8 16.4 87 1.3 CALM 0 0 0 0 1017.6 1017.5 1.2
18/05:55am 18.6 20.8 16.4 87 1.3 CALM 0 0 0 0 1017.6 1017.5 1.2
18/05:43am 18.7 20.0 16.1 85 1.5 NE 4 9 2 5 1017.5 1017.4 1.2
18/05:30am 19.3 20.7 16.3 83 1.8 ESE 4 9 2 5 1017.3 1017.2 0.4
18/05:00am 19.3 20.0 16.0 81 2.0 SSE 7 7 4 4 1016.9 1016.8 0.4
18/04:30am 18.9 19.6 16.1 84 1.7 S 7 7 4 4 1016.8 1016.7 0.4
18/04:00am 18.6 18.8 15.8 84 1.7 S 9 9 5 5 1016.8 1016.7 0.4
18/03:30am 18.5 20.4 15.7 84 1.7 CALM 0 0 0 0 1017.0 1016.9 0.4
18/03:00am 18.4 20.2 15.5 83 1.7 CALM 0 0 0 0 1017.2 1017.1 0.4
18/02:30am 19.0 20.8 15.5 80 2.1 CALM 0 0 0 0 1017.3 1017.2 0.4
18/02:00am 19.3 21.1 15.4 78 2.3 CALM 0 0 0 0 1017.4 1017.3 0.4
18/01:30am 19.9 21.6 15.3 75 2.7 CALM 0 0 0 0 1017.8 1017.8 0.4
18/01:00am 19.9 21.3 15.3 75 2.7 NE 2 7 1 4 1018.0 1018.0 0.4
18/12:30am 20.0 20.4 15.4 75 2.7 NE 7 11 4 6 1018.1 1018.1 0.4
18/12:00am 20.1 20.1 15.3 74 2.8 ENE 9 13 5 7 1018.1 1018.1 0.4
 
Date/Time
EDT
Temp
°C
App
Temp
°C
Dew
Point
°C
Rel
Hum
%
Delta-T
°C
Wind Press
QNH
hPa
Press
MSL
hPa
Rain since
9am
mm
Dir  Spd
km/h
Gust
km/h
Spd
kts
Gust
kts
17/11:30pm 20.2 19.8 15.2 73 2.9 ENE 11 13 6 7 1018.1 1018.1 0.4
17/11:00pm 20.4 19.6 15.0 71 3.2 ENE 13 19 7 10 1018.2 1018.2 0.4
17/10:30pm 20.4 20.3 15.0 71 3.2 ENE 9 15 5 8 1018.2 1018.2 0.4
17/10:00pm 20.6 20.1 14.9 70 3.3 ENE 11 17 6 9 1017.9 1017.9 0.4
17/09:30pm 20.8 19.8 14.5 67 3.7 E 13 19 7 10 1017.6 1017.5 0.4
17/09:00pm 21.0 20.6 14.2 65 4.0 E 9 15 5 8 1017.6 1017.5 0.4
17/08:30pm 21.3 20.8 13.7 62 4.4 ESE 9 13 5 7 1017.4 1017.3 0.4
17/08:00pm 21.0 19.3 13.7 63 4.2 E 15 24 8 13 1017.0 1016.9 0.4
17/07:30pm 21.5 18.9 13.7 61 4.5 E 20 30 11 16 1016.5 1016.4 0.4
17/07:00pm 22.1 19.8 14.2 61 4.6 E 19 26 10 14 1016.5 1016.4 0.4
17/06:30pm 22.8 21.1 14.6 60 4.8 E 17 28 9 15 1015.9 1015.8 0.4
17/06:00pm 23.2 21.4 15.5 62 4.6 ENE 19 26 10 14 1015.4 1015.3 0.4
17/05:30pm 24.0 23.1 15.8 60 5.0 ENE 15 24 8 13 1014.9 1014.8 0.4
17/05:00pm 24.0 21.7 15.8 60 5.0 E 22 32 12 17 1014.5 1014.4 0.4
17/04:30pm 23.7 22.9 17.0 66 4.1 E 17 24 9 13 1014.5 1014.4 0.4
17/04:00pm 24.3 23.0 17.3 65 4.3 E 20 30 11 16 1014.8 1014.7 0.2
17/03:30pm 24.1 22.9 16.1 61 4.9 E 17 24 9 13 1015.0 1014.9 0.2
17/03:00pm 24.6 24.6 16.3 60 5.1 NE 11 17 6 9 1015.7 1015.6 0.2
17/02:30pm 24.7 24.7 16.2 59 5.2 NE 11 17 6 9 1015.7 1015.6 0.2
17/02:00pm 25.0 24.0 15.6 56 5.7 NE 15 22 8 12 1016.0 1015.9 0.2
17/01:30pm 27.3 27.3 17.2 54 6.3 ENE 13 22 7 12 1015.9 1015.8 0.2
17/01:00pm 25.6 25.6 15.3 53 6.2 ENE 9 17 5 9 1016.5 1016.4 0.2
17/12:30pm 25.8 26.8 16.4 56 5.8 NE 6 9 3 5 1016.8 1016.7 0.2
17/12:00pm 24.3 25.5 15.8 59 5.1 NNW 4 13 2 7 1017.2 1017.1 0.2
17/11:30am 24.0 23.5 16.0 61 4.9 ENE 13 20 7 11 1017.6 1017.5 0.2
17/11:00am 23.6 23.6 15.1 59 5.1 NNE 9 17 5 9 1017.7 1017.6 0.2
17/10:30am 23.1 23.7 15.9 64 4.4 NE 7 13 4 7 1017.9 1017.9 0.0
17/10:00am 22.0 22.8 16.3 70 3.4 NE 7 13 4 7 1018.0 1018.0 0.0
17/09:30am 20.9 21.3 16.3 75 2.8 ENE 9 13 5 7 1017.8 1017.8 0.0
17/09:00am 20.4 21.2 16.4 78 2.4 NNE 7 11 4 6 1017.8 1017.8 0.4
17/08:30am 19.5 21.1 16.9 85 1.6 NNE 4 7 2 4 1017.6 1017.5 0.4
17/08:00am 18.7 19.5 17.2 91 0.9 NNE 9 11 5 6 1017.4 1017.3 0.4
17/07:30am 18.6 19.8 17.4 93 0.7 NNE 7 9 4 5 1017.2 1017.1 0.4
17/07:00am 18.0 20.6 17.5 97 0.3 CALM 0 0 0 0 1016.8 1016.7 0.4
17/06:30am 17.7 19.9 17.4 98 0.2 NNW 2 6 1 3 1016.5 1016.4 0.4
17/06:00am 17.4 18.5 17.1 98 0.2 ENE 7 9 4 5 1016.2 1016.1 0.4
17/05:30am 17.3 19.6 16.7 96 0.4 CALM 0 0 0 0 1015.9 1015.8 0.4
17/05:00am 17.5 19.8 16.7 95 0.5 CALM 0 0 0 0 1016.1 1016.0 0.4
17/04:30am 17.6 18.9 17.0 96 0.4 WSW 6 7 3 4 1016.1 1016.0 0.4
17/04:00am 17.6 20.0 17.1 97 0.3 CALM 0 0 0 0 1015.9 1015.8 0.4
17/03:30am 17.3 19.3 17.0 98 0.2 SW 2 7 1 4 1015.9 1015.8 0.4
17/03:00am 16.6 18.7 16.3 98 0.2 CALM 0 0 0 0 1016.0 1015.9 0.4
17/02:30am 16.6 17.0 16.3 98 0.2 S 9 11 5 6 1015.8 1015.7 0.4
17/02:00am 16.1 17.6 15.8 98 0.2 SSW 2 6 1 3 1016.0 1015.9 0.4
17/01:30am 16.1 16.6 15.6 97 0.3 SSE 7 11 4 6 1015.9 1015.8 0.4
17/01:00am 16.7 17.5 16.4 98 0.2 WSW 7 9 4 5 1016.0 1015.9 0.4
17/12:30am 16.9 18.9 16.1 95 0.5 CALM 0 0 0 0 1016.2 1016.1 0.4
17/12:00am 17.7 18.6 16.6 93 0.7 SSW 7 9 4 5 1016.2 1016.1 0.4
 
Date/Time
EDT
Temp
°C
App
Temp
°C
Dew
Point
°C
Rel
Hum
%
Delta-T
°C
Wind Press
QNH
hPa
Press
MSL
hPa
Rain since
9am
mm
Dir  Spd
km/h
Gust
km/h
Spd
kts
Gust
kts
16/11:30pm 18.7 19.9 16.9 89 1.1 E 6 9 3 5 1016.3 1016.2 0.4
16/11:00pm 18.8 19.5 17.1 90 1.0 SE 9 11 5 6 1016.4 1016.3 0.4
16/10:30pm 19.0 19.7 17.1 89 1.2 E 9 11 5 6 1016.3 1016.2 0.4
16/10:00pm 18.5 19.4 16.7 89 1.1 E 7 11 4 6 1016.1 1016.0 0.4
16/09:30pm 19.2 20.4 17.3 89 1.2 ESE 7 9 4 5 1016.1 1016.0 0.4
16/09:00pm 19.5 21.6 17.1 86 1.5 SSE 2 7 1 4 1015.9 1015.8 0.4
16/08:30pm 19.6 22.2 17.4 87 1.3 CALM 0 7 0 4 1015.7 1015.6 0.4
16/08:00pm 19.6 22.1 17.2 86 1.5 CALM 0 0 0 0 1015.5 1015.4 0.4
16/07:30pm 20.0 21.2 17.4 85 1.6 NE 7 11 4 6 1015.1 1015.0 0.4
16/07:00pm 20.4 20.4 17.2 82 2.0 NE 13 20 7 11 1014.7 1014.6 0.4
16/06:30pm 20.8 19.5 16.8 78 2.4 NE 19 24 10 13 1014.5 1014.4 0.4
16/06:00pm 21.5 20.6 16.9 75 2.8 ENE 17 26 9 14 1014.1 1014.0 0.4
16/05:30pm 22.1 22.1 17.2 74 3.0 ENE 13 20 7 11 1013.8 1013.7 0.4
16/05:00pm 22.4 23.8 17.8 75 2.9 ESE 7 13 4 7 1013.9 1013.8 0.4
16/04:30pm 22.1 22.7 17.7 76 2.7 W 11 15 6 8 1014.0 1013.9 0.4
16/04:00pm 22.7 22.6 16.0 66 4.0 NW 11 15 6 8 1013.9 1013.8 0.0
16/03:30pm 24.5 23.8 14.3 53 6.0 NW 11 15 6 8 1013.7 1013.6 0.0
16/03:00pm 25.3 24.2 13.2 47 7.1 NNW 11 15 6 8 1013.8 1013.7 0.0
16/02:30pm 25.5 24.6 13.7 48 6.9 N 11 15 6 8 1014.1 1014.0 0.0
16/02:00pm 25.2 24.3 13.7 49 6.8 NNE 11 15 6 8 1014.2 1014.1 0.0
16/01:30pm 25.9 26.5 15.3 52 6.4 NNW 6 9 3 5 1014.4 1014.3 0.0
16/01:00pm 24.5 24.1 14.0 52 6.2 NW 9 15 5 8 1014.7 1014.6 0.0
16/12:30pm 24.1 24.2 14.5 55 5.7 WNW 7 13 4 7 1015.2 1015.1 0.0
16/12:00pm 24.6 25.0 14.7 54 5.9 NNW 6 13 3 7 1015.4 1015.3 0.0
16/11:30am 23.8 23.3 13.9 54 5.8 NNW 9 19 5 10 1015.7 1015.6 0.0
16/11:00am 23.5 22.9 14.5 57 5.3 NNW 11 17 6 9 1015.9 1015.8 0.0
16/10:30am 22.4 22.1 14.3 60 4.8 NE 9 17 5 9 1015.8 1015.7 0.0
16/10:00am 21.9 21.7 14.8 64 4.2 NNE 9 17 5 9 1016.2 1016.1 0.0
16/09:30am 21.5 21.2 14.4 64 4.2 ESE 9 13 5 7 1016.2 1016.1 0.0
16/09:00am 20.0 20.0 14.1 69 3.4 SSE 7 11 4 6 1016.4 1016.3 0.0
16/08:30am 19.6 20.3 14.4 72 3.0 S 4 9 2 5 1016.7 1016.6 0.0
16/08:00am 18.1 18.0 14.0 77 2.3 SW 7 13 4 7 1016.6 1016.5 0.0
16/07:30am 17.0 17.9 14.1 83 1.7 SW 2 7 1 4 1016.3 1016.2 0.0
16/07:00am 16.2 17.6 14.4 89 1.0 CALM 0 0 0 0 1016.0 1015.9 0.0
16/06:30am 14.0 15.2 13.7 98 0.2 CALM 0 0 0 0 1015.8 1015.7 0.0
16/06:00am 13.4 14.4 13.1 98 0.2 CALM 0 0 0 0 1015.7 1015.6 0.0
16/05:30am 13.5 14.4 13.0 97 0.3 CALM 0 0 0 0 1015.5 1015.4 0.0
16/05:00am 13.5 14.4 12.9 96 0.3 CALM 0 0 0 0 1015.6 1015.5 0.0
16/04:30am 14.2 15.3 13.6 96 0.3 CALM 0 0 0 0 1015.5 1015.4 0.0
16/04:00am 14.0 15.0 13.2 95 0.4 CALM 0 0 0 0 1015.7 1015.6 0.0
16/03:30am 13.7 14.6 12.8 94 0.5 CALM 0 0 0 0 1015.8 1015.7 0.0
16/03:00am 14.1 14.4 13.5 96 0.3 W 4 7 2 4 1016.1 1016.0 0.0
16/02:30am 14.4 15.6 13.9 97 0.3 CALM 0 0 0 0 1016.1 1016.0 0.0
16/02:00am 14.6 15.8 13.8 95 0.4 CALM 0 0 0 0 1016.2 1016.1 0.0
16/01:30am 14.5 15.7 13.7 95 0.4 CALM 0 0 0 0 1016.5 1016.4 0.0
16/01:00am 15.0 16.2 13.7 92 0.7 CALM 0 0 0 0 1016.8 1016.7 0.0
16/12:30am 15.6 15.4 13.1 85 1.4 SE 6 9 3 5 1017.3 1017.2 0.0
16/12:00am 16.6 17.9 14.1 85 1.4 CALM 0 2 0 1 1017.5 1017.4 0.0
 
Date/Time
EDT
Temp
°C
App
Temp
°C
Dew
Point
°C
Rel
Hum
%
Delta-T
°C
Wind Press
QNH
hPa
Press
MSL
hPa
Rain since
9am
mm
Dir  Spd
km/h
Gust
km/h
Spd
kts
Gust
kts
15/11:30pm 16.6 17.6 13.3 81 1.8 CALM 0 0 0 0 1017.7 1017.6 0.0
15/11:00pm 18.1 18.0 13.4 74 2.7 E 6 9 3 5 1017.7 1017.6 0.0
15/10:30pm 18.5 18.4 13.8 74 2.7 E 7 9 4 5 1017.7 1017.6 0.0
15/10:00pm 18.5 17.9 13.6 73 2.8 ENE 9 11 5 6 1017.7 1017.6 0.0
15/09:30pm 19.3 17.9 13.5 69 3.3 ENE 13 15 7 8 1017.6 1017.5 0.0
15/09:00pm 19.3 18.7 13.5 69 3.3 ENE 9 15 5 8 1017.3 1017.2 0.0
15/08:30pm 19.9 19.0 13.8 68 3.5 NE 11 19 6 10 1017.0 1016.9 0.0
15/08:00pm 20.6 18.6 13.8 65 3.9 ENE 17 20 9 11 1016.5 1016.4 0.0
15/07:30pm 21.5 19.0 13.4 60 4.7 ENE 19 26 10 14 1016.3 1016.2 0.0
15/07:00pm 22.4 19.8 13.2 56 5.3 ENE 19 28 10 15 1015.9 1015.8 0.0
15/06:30pm 23.4 21.0 12.7 51 6.1 ENE 17 30 9 16 1015.3 1015.2 0.0
15/06:00pm 24.9 22.1 13.1 48 6.9 E 20 30 11 16 1014.7 1014.6 0.0
15/05:30pm 25.5 21.9 13.0 46 7.3 ENE 24 30 13 16 1014.5 1014.4 0.0
15/05:00pm 26.1 22.5 13.2 44 7.5 E 24 35 13 19 1014.2 1014.1 0.0
15/04:30pm 27.0 23.3 12.6 41 8.4 ENE 24 35 13 19 1014.5 1014.4 0.0
15/04:00pm 27.5 23.2 13.1 41 8.5 E 28 35 15 19 1014.5 1014.4 0.0
15/03:30pm 28.3 25.6 13.4 40 8.8 ENE 20 32 11 17 1014.7 1014.6 0.0
15/03:00pm 27.9 25.3 10.6 34 9.8 E 15 22 8 12 1015.1 1015.0 0.0
15/02:30pm 28.0 25.9 11.1 35 9.6 ENE 13 24 7 13 1015.6 1015.5 0.0
15/02:00pm 27.8 26.0 10.9 35 9.6 NNE 11 17 6 9 1016.3 1016.2 0.0
15/01:30pm 26.7 24.6 11.2 38 8.8 NNE 13 22 7 12 1016.7 1016.6 0.0
15/01:00pm 26.6 25.1 11.9 40 8.4 ENE 11 20 6 11 1017.3 1017.2 0.0
15/12:30pm 26.4 24.3 12.5 42 8.1 ENE 15 28 8 15 1017.8 1017.8 0.0
15/12:00pm 25.9 24.4 13.1 45 7.5 ENE 13 22 7 12 1018.4 1018.4 0.0
15/11:30am 25.2 22.5 12.8 46 7.2 NE 19 28 10 15 1018.8 1018.8 0.0
15/11:00am 24.4 23.1 13.6 51 6.3 NNE 13 22 7 12 1019.4 1019.4 0.0
15/10:30am 22.9 22.3 14.5 59 5.0 NE 11 17 6 9 1019.8 1019.8 0.0
15/10:00am 21.3 20.9 14.0 63 4.2 NNE 9 15 5 8 1020.2 1020.2 0.0
15/09:30am 20.8 20.3 13.7 64 4.1 NE 9 13 5 7 1020.2 1020.2 0.0
15/09:00am 20.0 19.8 14.6 71 3.1 ENE 9 13 5 7 1020.4 1020.4 0.0
15/08:30am 19.2 20.1 14.0 72 3.0 ENE 2 9 1 5 1020.6 1020.6 0.0
15/08:00am 17.8 19.0 13.7 77 2.3 CALM 0 0 0 0 1020.4 1020.4 0.0
15/07:30am 16.1 16.6 13.9 87 1.2 NE 4 7 2 4 1020.3 1020.3 0.0
15/07:00am 14.3 15.5 13.7 96 0.3 CALM 0 0 0 0 1020.0 1020.0 0.0
15/06:30am 12.8 13.6 12.5 98 0.2 CALM 0 0 0 0 1020.1 1020.1 0.0

Latest Capital City Observations: Canberra | Sydney | Melbourne | Brisbane | Adelaide | Perth | Hobart | Darwin

Other Formats:

Comma delimited format used in spreadsheet applications
http://www.bom.gov.au/fwo/IDN60901/IDN60901.95753.axf

JavaScript Object Notation format (JSON) in row-major order
http://www.bom.gov.au/fwo/IDN60901/IDN60901.95753.json